Time;durP1;ratioP1;P1;durP2;ratioP2;P2;SDS_P1;SDS_P2;PMS_P1;PMS_P2;Temp;Humidity;BMP_temperature;BMP_pressure;BME280_temperature;BME280_humidity;BME280_pressure;Samples;Min_cycle;Max_cycle;Signal;HPM_P1;HPM_P2
2022/05/15 00:02:08;;;;;;;24.13;6.22;;;;;;;15.98;73.19;101640.38;5078331;28;20080;-79
2022/05/15 00:04:35;;;;;;;21.80;5.20;;;;;;;16.00;73.38;101645.56;5081716;28;20044;-78
2022/05/15 00:07:03;;;;;;;19.60;4.72;;;;;;;15.99;73.56;101641.97;5073946;28;20139;-79
2022/05/15 00:09:29;;;;;;;21.42;5.05;;;;;;;16.01;73.15;101641.53;5074190;28;20476;-79
2022/05/15 00:11:56;;;;;;;28.77;5.60;;;;;;;15.98;73.13;101640.38;5079323;28;20036;-80
2022/05/15 00:14:22;;;;;;;33.00;6.55;;;;;;;15.99;72.81;101647.53;5078196;28;20051;-77
2022/05/15 00:16:49;;;;;;;26.13;5.20;;;;;;;16.01;72.93;101641.53;5073697;28;20127;-78
2022/05/15 00:19:16;;;;;;;19.70;5.15;;;;;;;16.00;72.66;101651.13;5075693;28;20051;-78
2022/05/15 00:21:42;;;;;;;23.33;5.65;;;;;;;15.92;72.66;101644.81;5078911;28;20119;-78
2022/05/15 00:24:09;;;;;;;18.27;4.85;;;;;;;15.90;73.23;101632.47;5073784;28;20135;-78
2022/05/15 00:26:36;;;;;;;25.85;5.43;;;;;;;15.96;73.31;101644.78;5071598;28;20052;-78
2022/05/15 00:29:03;;;;;;;19.48;5.22;;;;;;;15.93;73.13;101634.44;5076734;28;20467;-77
2022/05/15 00:31:30;;;;;;;19.25;5.82;;;;;;;15.92;73.39;101641.22;5076859;28;20053;-78
2022/05/15 00:33:57;;;;;;;21.58;5.47;;;;;;;15.88;73.92;101637.66;5067338;28;20496;-79
2022/05/15 00:36:23;;;;;;;30.27;6.32;;;;;;;15.85;73.81;101639.28;5072072;28;20059;-79
2022/05/15 00:38:50;;;;;;;21.38;6.28;;;;;;;15.82;74.50;101628.16;5073185;28;20528;-78
2022/05/15 00:41:17;;;;;;;25.23;6.15;;;;;;;15.81;74.40;101637.72;5070116;28;22261;-78
2022/05/15 00:43:46;;;;;;;28.17;5.93;;;;;;;15.79;74.56;101642.94;5076787;28;20472;-78
2022/05/15 00:46:31;;;;;;;19.27;4.97;;;;;;;15.69;74.59;101635.44;5077686;28;20422;-79
2022/05/15 00:49:00;;;;;;;21.67;6.13;;;;;;;15.71;75.13;101638.59;5080425;28;20057;-78
2022/05/15 00:51:51;;;;;;;24.30;6.40;;;;;;;15.68;75.77;101634.63;5075605;28;20066;-78
2022/05/15 00:54:30;;;;;;;20.63;5.97;;;;;;;15.67;75.41;101632.25;5075396;28;20056;-78
2022/05/15 00:57:03;;;;;;;25.33;5.78;;;;;;;15.62;74.88;101635.50;5078163;28;20058;-79
2022/05/15 00:59:39;;;;;;;25.27;6.85;;;;;;;15.59;75.16;101633.53;5082592;28;20082;-77
2022/05/15 01:02:09;;;;;;;22.92;5.00;;;;;;;15.57;75.45;101639.50;5065906;28;20534;-78
2022/05/15 01:04:36;;;;;;;22.85;5.47;;;;;;;15.56;74.87;101639.91;5091338;28;20063;-79
2022/05/15 01:07:04;;;;;;;20.98;6.18;;;;;;;15.53;75.00;101645.09;5076423;28;20046;-78
2022/05/15 01:09:30;;;;;;;21.08;5.65;;;;;;;15.51;75.64;101635.56;5081029;28;20135;-77
2022/05/15 01:12:00;;;;;;;24.48;5.28;;;;;;;15.42;76.04;101633.22;5074735;28;20159;-76
2022/05/15 01:14:26;;;;;;;24.48;5.15;;;;;;;15.39;76.66;101636.81;5072703;28;20574;-77
2022/05/15 01:16:53;;;;;;;20.58;5.40;;;;;;;15.35;76.50;101629.66;5072397;28;20428;-77
2022/05/15 01:19:35;;;;;;;24.60;6.65;;;;;;;15.30;78.11;101638.47;5074606;28;20056;-78
2022/05/15 01:22:04;;;;;;;25.73;5.90;;;;;;;15.28;77.08;101641.66;5075912;28;20109;-78
2022/05/15 01:24:31;;;;;;;22.38;5.07;;;;;;;15.26;76.68;101640.47;5077314;28;20071;-77
2022/05/15 01:27:03;;;;;;;22.65;6.43;;;;;;;15.25;77.44;101642.47;5073504;28;20055;-78
2022/05/15 01:29:33;;;;;;;24.27;5.70;;;;;;;15.20;77.64;101636.53;5085146;28;20055;-78
2022/05/15 01:32:01;;;;;;;17.38;4.85;;;;;;;15.12;77.82;101635.75;5076549;28;20048;-77
2022/05/15 01:34:28;;;;;;;24.55;6.10;;;;;;;15.08;79.02;101634.97;5070401;28;20143;-78
2022/05/15 01:36:55;;;;;;;25.00;5.72;;;;;;;15.05;78.99;101632.19;5075212;28;20052;-78
2022/05/15 01:39:22;;;;;;;18.52;5.53;;;;;;;15.00;79.28;101627.06;5072553;28;20424;-78
2022/05/15 01:41:48;;;;;;;20.85;5.60;;;;;;;14.97;79.86;101637.03;5071831;28;20410;-81
2022/05/15 01:44:15;;;;;;;25.50;6.13;;;;;;;14.95;80.02;101645.00;5077312;28;20082;-80
2022/05/15 01:46:41;;;;;;;24.83;6.55;;;;;;;14.83;80.73;101633.50;5084435;28;20044;-77
2022/05/15 01:49:08;;;;;;;25.90;6.80;;;;;;;14.85;81.25;101637.47;5080261;28;20050;-77
2022/05/15 01:51:37;;;;;;;19.40;5.13;;;;;;;14.80;81.48;101623.97;5077964;28;20155;-77
2022/05/15 01:54:04;;;;;;;25.33;6.50;;;;;;;14.81;81.07;101636.69;5079095;28;20151;-78
2022/05/15 01:56:30;;;;;;;18.38;5.40;;;;;;;14.76;81.14;101625.19;5078568;28;20079;-77
2022/05/15 01:58:57;;;;;;;19.88;5.47;;;;;;;14.71;81.46;101631.97;5069647;28;20132;-78
2022/05/15 02:01:24;;;;;;;23.50;6.30;;;;;;;14.69;82.95;101631.59;5066971;28;20444;-78
2022/05/15 02:03:50;;;;;;;22.83;5.97;;;;;;;14.61;83.00;101632.78;5080550;28;20062;-78
2022/05/15 02:06:17;;;;;;;27.63;6.03;;;;;;;14.59;82.85;101637.97;5073771;28;20087;-79
2022/05/15 02:08:43;;;;;;;22.52;5.60;;;;;;;14.55;83.39;101628.81;5068405;28;20080;-78
2022/05/15 02:11:10;;;;;;;28.83;6.75;;;;;;;14.48;83.38;101636.41;5077409;28;20048;-78
2022/05/15 02:13:37;;;;;;;22.85;6.43;;;;;;;14.43;83.97;101632.03;5071272;28;20048;-78
2022/05/15 02:16:03;;;;;;;22.30;6.47;;;;;;;14.37;85.27;101624.50;5068279;28;20087;-78
2022/05/15 02:18:30;;;;;;;20.40;6.15;;;;;;;14.31;85.00;101620.53;5075674;28;20478;-79
2022/05/15 02:20:57;;;;;;;21.33;6.25;;;;;;;14.29;85.33;101617.34;5078660;28;20480;-78
2022/05/15 02:23:23;;;;;;;18.70;6.28;;;;;;;14.26;86.34;101621.75;5080192;28;20042;-79
2022/05/15 02:25:50;;;;;;;27.60;6.68;;;;;;;14.21;86.33;101618.53;5082204;28;20387;-78
2022/05/15 02:28:17;;;;;;;20.67;5.68;;;;;;;14.15;87.55;101618.16;5085115;28;20381;-78
2022/05/15 02:30:43;;;;;;;26.45;5.63;;;;;;;14.08;86.91;101622.94;5088314;28;20079;-79
2022/05/15 02:33:10;;;;;;;25.23;6.57;;;;;;;14.07;88.65;101616.56;5073170;28;20036;-78
2022/05/15 02:35:36;;;;;;;25.60;7.47;;;;;;;14.05;87.88;101616.19;5077384;28;20059;-79
2022/05/15 02:38:03;;;;;;;22.20;7.18;;;;;;;14.04;88.67;101614.56;5083749;28;20131;-79
2022/05/15 02:40:30;;;;;;;22.35;7.10;;;;;;;14.02;88.54;101619.75;5071031;28;20689;-78
2022/05/15 02:42:56;;;;;;;26.67;7.45;;;;;;;13.99;88.85;101617.78;5065260;28;20595;-78
2022/05/15 02:45:24;;;;;;;24.83;7.30;;;;;;;13.99;88.65;101617.78;5076194;28;20049;-79
2022/05/15 02:47:51;;;;;;;23.70;6.50;;;;;;;13.95;89.17;101616.19;5068161;28;20208;-76
2022/05/15 02:53:04;;;;;;;25.10;6.90;;;;;;;13.83;91.80;101614.59;5074853;28;20078;-77
2022/05/15 02:55:31;;;;;;;28.67;6.85;;;;;;;13.78;91.26;101615.00;5073527;28;20164;-77
2022/05/15 02:57:58;;;;;;;23.50;8.02;;;;;;;13.76;91.48;101620.16;5075104;28;20058;-79
2022/05/15 03:00:27;;;;;;;23.65;6.38;;;;;;;13.69;92.34;101625.72;5078682;28;20040;-77
2022/05/15 03:02:53;;;;;;;21.73;6.05;;;;;;;13.66;92.38;101622.91;5076584;28;20132;-77
2022/05/15 03:05:27;;;;;;;24.73;6.82;;;;;;;13.61;92.79;101626.09;5082227;28;20143;-78
2022/05/15 03:07:53;;;;;;;23.48;6.85;;;;;;;13.60;92.56;101624.53;5080458;28;20048;-78
2022/05/15 03:10:21;;;;;;;23.20;6.63;;;;;;;13.54;93.50;101618.56;5082664;28;20440;-77
2022/05/15 03:12:47;;;;;;;25.95;6.50;;;;;;;13.53;93.82;101622.50;5073929;28;20066;-80
2022/05/15 03:15:15;;;;;;;21.95;6.30;;;;;;;13.48;94.10;101620.13;5080875;28;20066;-79
2022/05/15 03:17:43;;;;;;;28.83;6.72;;;;;;;13.43;93.19;101616.97;5080915;28;20170;-78
2022/05/15 03:20:12;;;;;;;21.55;6.95;;;;;;;13.37;94.43;101619.34;5077766;28;20063;-78
2022/05/15 03:22:39;;;;;;;21.35;7.00;;;;;;;13.34;94.43;101622.91;5084711;28;20483;-78
2022/05/15 03:25:06;;;;;;;27.52;8.25;;;;;;;13.32;94.47;101616.13;5082941;28;20115;-79
2022/05/15 03:27:32;;;;;;;22.98;7.13;;;;;;;13.22;94.46;101619.72;5074599;28;20062;-77
2022/05/15 03:29:59;;;;;;;23.17;7.05;;;;;;;13.23;94.17;101624.06;5082464;28;20335;-78
2022/05/15 03:32:26;;;;;;;26.05;7.45;;;;;;;13.14;95.97;101615.31;5086958;28;20045;-78
2022/05/15 03:34:52;;;;;;;31.35;11.95;;;;;;;13.08;96.99;101617.66;5080006;28;20057;-80
2022/05/15 03:37:19;;;;;;;26.63;7.40;;;;;;;13.09;95.89;101613.69;5073173;28;20051;-73
2022/05/15 03:39:45;;;;;;;23.48;7.95;;;;;;;13.10;98.14;101615.31;5071401;28;20542;-79
2022/05/15 03:42:12;;;;;;;18.85;7.07;;;;;;;13.09;97.75;101615.69;5072507;28;20465;-77
2022/05/15 03:44:38;;;;;;;21.27;6.80;;;;;;;13.06;97.31;101614.47;5070611;28;20060;-77
2022/05/15 03:47:06;;;;;;;20.20;7.03;;;;;;;12.99;96.77;101622.78;5071215;28;20056;-77
2022/05/15 03:49:32;;;;;;;22.25;7.55;;;;;;;12.94;97.20;101617.59;5069600;28;20059;-78
2022/05/15 03:51:59;;;;;;;24.35;7.68;;;;;;;12.94;97.36;101614.81;5071988;28;20636;-78
2022/05/15 03:54:25;;;;;;;28.23;8.20;;;;;;;12.91;98.42;101619.19;5075360;28;20052;-78
2022/05/15 03:56:52;;;;;;;25.85;7.40;;;;;;;12.87;98.78;101621.13;5074325;28;20135;-80
2022/05/15 03:59:23;;;;;;;21.70;8.13;;;;;;;12.86;98.58;101624.31;5069726;28;20063;-78
2022/05/15 04:01:50;;;;;;;24.35;7.78;;;;;;;12.86;99.37;101622.31;5076913;28;20408;-79
2022/05/15 04:04:17;;;;;;;30.98;9.75;;;;;;;12.84;100.00;101623.91;5074103;28;20071;-78
2022/05/15 04:06:44;;;;;;;27.80;8.15;;;;;;;12.76;100.00;101611.19;5076095;28;20127;-78
2022/05/15 04:09:11;;;;;;;24.95;8.20;;;;;;;12.77;100.00;101623.88;5078788;28;20405;-78
2022/05/15 04:11:39;;;;;;;23.95;8.30;;;;;;;12.76;100.00;101613.97;5075291;28;20062;-77
2022/05/15 04:14:06;;;;;;;22.70;7.50;;;;;;;12.77;100.00;101613.56;5071650;28;20048;-79
2022/05/15 04:16:33;;;;;;;23.90;8.68;;;;;;;12.74;100.00;101610.78;5079909;28;20050;-80
2022/05/15 04:19:01;;;;;;;25.08;8.57;;;;;;;12.72;100.00;101615.91;5070556;28;20059;-78
2022/05/15 04:21:30;;;;;;;23.27;8.75;;;;;;;12.72;100.00;101618.69;5084256;28;20385;-78
2022/05/15 04:23:56;;;;;;;23.98;8.68;;;;;;;12.74;100.00;101616.31;5083481;28;20046;-77
2022/05/15 04:26:23;;;;;;;24.42;8.63;;;;;;;12.75;100.00;101615.94;5074310;28;20048;-79
2022/05/15 04:28:49;;;;;;;20.48;7.85;;;;;;;12.76;100.00;101611.19;5082350;28;20060;-78
2022/05/15 04:31:16;;;;;;;20.60;8.13;;;;;;;12.80;100.00;101612.00;5080620;28;20679;-78
2022/05/15 04:33:42;;;;;;;31.30;10.77;;;;;;;12.79;100.00;101605.63;5084125;28;20051;-81
2022/05/15 04:36:09;;;;;;;27.38;9.68;;;;;;;12.89;100.00;101620.72;5069042;28;20060;-79
2022/05/15 04:38:35;;;;;;;30.45;9.48;;;;;;;12.86;100.00;101608.44;5081241;28;20055;-78
2022/05/15 04:41:02;;;;;;;28.92;11.90;;;;;;;12.90;100.00;101611.22;5069630;28;20070;-77
2022/05/15 04:43:29;;;;;;;26.92;10.05;;;;;;;12.96;100.00;101613.22;5074603;28;20056;-76
2022/05/15 04:45:55;;;;;;;30.95;10.38;;;;;;;13.02;100.00;101610.13;5072631;28;20134;-80
2022/05/15 04:48:22;;;;;;;30.10;10.00;;;;;;;13.14;100.00;101609.75;5092989;28;20393;-81
2022/05/15 04:50:49;;;;;;;25.35;9.80;;;;;;;13.24;100.00;101615.34;5090036;28;20083;-81
2022/05/15 04:53:21;;;;;;;29.60;9.63;;;;;;;13.29;100.00;101614.16;5095043;28;20052;-81
2022/05/15 04:55:48;;;;;;;27.90;9.68;;;;;;;13.31;100.00;101609.78;5083587;28;20140;-82
2022/05/15 04:58:15;;;;;;;26.00;9.60;;;;;;;13.36;100.00;101611.41;5096637;28;20040;-83
2022/05/15 05:00:43;;;;;;;27.42;9.40;;;;;;;13.41;100.00;101614.56;5084621;28;20076;-81
2022/05/15 05:03:10;;;;;;;24.60;10.70;;;;;;;13.45;100.00;101612.59;5090999;28;20120;-81
2022/05/15 05:05:37;;;;;;;24.40;8.93;;;;;;;13.50;100.00;101617.75;5088079;28;20058;-81
2022/05/15 05:08:05;;;;;;;22.98;8.82;;;;;;;13.56;100.00;101616.16;5091749;28;20129;-80
2022/05/15 05:10:34;;;;;;;25.20;9.32;;;;;;;13.61;100.00;101612.19;5092121;28;20067;-80
2022/05/15 05:13:01;;;;;;;29.77;10.50;;;;;;;13.68;100.00;101618.56;5078483;28;20402;-82
2022/05/15 05:15:27;;;;;;;25.52;9.35;;;;;;;13.74;100.00;101616.19;5080037;28;20059;-81
2022/05/15 05:17:55;;;;;;;27.33;9.80;;;;;;;13.86;100.00;101629.69;5077101;28;20059;-81
2022/05/15 05:20:21;;;;;;;23.33;9.73;;;;;;;13.90;100.00;101622.94;5094389;28;20659;-81
2022/05/15 05:22:48;;;;;;;22.25;9.27;;;;;;;13.98;100.00;101632.88;5084357;28;20084;-78
2022/05/15 05:25:16;;;;;;;28.20;9.63;;;;;;;14.06;100.00;101639.22;5083762;28;20044;-76
2022/05/15 05:27:43;;;;;;;31.33;11.20;;;;;;;14.11;99.84;101634.03;5078890;28;20063;-74
2022/05/15 05:30:18;;;;;;;26.90;10.18;;;;;;;14.17;99.15;101638.03;5075300;28;20070;-75
2022/05/15 05:32:46;;;;;;;26.17;11.20;;;;;;;14.22;98.81;101637.66;5083863;28;20048;-75
2022/05/15 05:35:15;;;;;;;32.58;10.82;;;;;;;14.31;98.48;101640.81;5076824;28;20163;-76
2022/05/15 05:37:42;;;;;;;27.95;10.65;;;;;;;14.41;98.22;101647.56;5069463;28;20135;-76
2022/05/15 05:40:09;;;;;;;29.30;10.95;;;;;;;14.49;97.96;101647.16;5069788;28;20143;-75
2022/05/15 05:42:35;;;;;;;27.75;10.18;;;;;;;14.57;97.74;101647.91;5083881;28;20052;-75
2022/05/15 05:45:03;;;;;;;24.90;10.68;;;;;;;14.64;97.98;101645.91;5080504;28;20051;-74
2022/05/15 05:47:30;;;;;;;28.42;9.80;;;;;;;14.67;97.33;101645.09;5081594;28;20064;-76
2022/05/15 05:49:57;;;;;;;25.02;10.52;;;;;;;14.74;97.29;101650.66;5071726;28;20139;-79
2022/05/15 05:52:24;;;;;;;23.02;9.52;;;;;;;14.82;97.50;101652.22;5076122;28;20148;-74
2022/05/15 05:54:51;;;;;;;26.25;10.07;;;;;;;14.89;97.62;101643.81;5076150;28;20084;-78
2022/05/15 05:57:18;;;;;;;27.33;9.57;;;;;;;14.93;97.05;101650.19;5099338;28;20441;-79
2022/05/15 05:59:45;;;;;;;29.88;11.45;;;;;;;15.02;96.77;101653.31;5070500;28;20144;-76
2022/05/15 06:02:11;;;;;;;26.30;10.55;;;;;;;15.07;95.98;101654.91;5077056;28;20575;-77
2022/05/15 06:04:44;;;;;;;25.40;10.02;;;;;;;15.14;95.88;101652.88;5073005;28;20786;-75
2022/05/15 06:07:20;;;;;;;22.80;9.82;;;;;;;15.17;96.50;101649.28;5077417;28;20059;-76
2022/05/15 06:09:50;;;;;;;22.10;9.90;;;;;;;15.22;96.39;101651.63;5081666;28;20162;-76
2022/05/15 06:12:20;;;;;;;22.63;9.60;;;;;;;15.29;95.64;101654.38;5082506;28;20163;-75
2022/05/15 06:14:48;;;;;;;24.30;9.32;;;;;;;15.38;95.63;101645.59;5070679;28;20602;-75
2022/05/15 06:17:25;;;;;;;26.10;10.02;;;;;;;15.48;95.04;101641.19;5075442;28;20113;-76
2022/05/15 06:19:52;;;;;;;22.15;9.50;;;;;;;15.55;94.76;101649.50;5072100;28;20083;-77
2022/05/15 06:22:18;;;;;;;28.60;11.38;;;;;;;15.67;94.49;101655.38;5081554;28;20056;-77
2022/05/15 06:24:45;;;;;;;26.98;9.80;;;;;;;15.78;94.10;101655.28;5084439;28;20049;-76
2022/05/15 06:27:12;;;;;;;21.33;10.10;;;;;;;15.88;93.03;101646.03;5077379;28;20081;-76
2022/05/15 06:29:40;;;;;;;27.00;11.05;;;;;;;16.00;92.86;101651.13;5075058;28;20048;-76
2022/05/15 06:32:08;;;;;;;22.60;9.95;;;;;;;16.12;92.11;101653.41;5080776;28;20098;-72
2022/05/15 06:34:35;;;;;;;25.08;9.98;;;;;;;16.20;91.62;101638.97;5083689;28;20044;-72
2022/05/15 06:37:02;;;;;;;28.77;10.82;;;;;;;16.30;91.44;101645.69;5088195;28;20083;-79
2022/05/15 06:39:28;;;;;;;23.30;10.35;;;;;;;16.43;90.61;101646.78;5082576;28;20048;-78
2022/05/15 06:41:59;;;;;;;22.02;9.32;;;;;;;16.52;90.03;101647.06;5081379;28;20131;-78
2022/05/15 06:44:26;;;;;;;24.55;10.32;;;;;;;16.60;89.22;101654.19;5080359;28;20044;-78
2022/05/15 06:46:53;;;;;;;24.65;9.90;;;;;;;16.68;88.61;101641.69;5085532;28;20071;-79
2022/05/15 06:49:19;;;;;;;25.63;9.93;;;;;;;16.80;88.45;101650.34;5092098;28;20101;-77
2022/05/15 06:51:46;;;;;;;24.30;10.35;;;;;;;16.87;87.13;101644.66;5076917;28;20049;-76
2022/05/15 06:54:13;;;;;;;24.33;10.63;;;;;;;16.94;86.44;101638.97;5078454;28;20136;-78
2022/05/15 06:59:24;;;;;;;22.80;10.35;;;;;;;17.18;85.32;101639.88;5088016;28;20131;-77
2022/05/15 07:01:51;;;;;;;22.92;9.10;;;;;;;17.31;84.51;101641.66;5087007;28;20090;-79
2022/05/15 07:04:18;;;;;;;26.63;10.32;;;;;;;17.46;84.21;101640.31;5080425;28;20047;-77
2022/05/15 07:06:48;;;;;;;28.48;11.95;;;;;;;17.57;83.60;101640.94;5080202;28;20048;-79
2022/05/15 07:09:14;;;;;;;21.10;9.20;;;;;;;17.68;82.67;101632.34;5086211;28;20416;-76
2022/05/15 07:11:41;;;;;;;23.58;10.38;;;;;;;17.78;82.67;101632.19;5079309;28;20056;-77
2022/05/15 07:14:09;;;;;;;29.77;10.82;;;;;;;17.92;82.46;101634.75;5087245;28;20571;-79
2022/05/15 07:16:36;;;;;;;20.20;8.85;;;;;;;18.02;81.57;101629.41;5073515;28;20048;-78
2022/05/15 07:19:03;;;;;;;22.00;9.30;;;;;;;18.11;81.18;101638.84;5080433;28;20055;-78
2022/05/15 07:21:30;;;;;;;25.10;10.02;;;;;;;18.25;80.12;101638.59;5083859;28;20043;-79
2022/05/15 07:23:56;;;;;;;25.48;10.23;;;;;;;18.34;80.12;101636.03;5085518;28;20046;-78
2022/05/15 07:26:24;;;;;;;19.08;9.07;;;;;;;18.56;78.85;101637.22;5077228;28;20052;-78
2022/05/15 07:28:51;;;;;;;22.85;9.75;;;;;;;18.65;78.19;101639.47;5088254;28;20056;-77
2022/05/15 07:31:19;;;;;;;27.33;10.82;;;;;;;18.79;77.73;101636.38;5082437;28;20049;-76
2022/05/15 07:33:47;;;;;;;21.60;9.52;;;;;;;18.96;77.25;101638.03;5071592;28;20106;-75
2022/05/15 07:36:14;;;;;;;19.15;9.32;;;;;;;19.18;76.50;101634.34;5080192;28;20048;-77
2022/05/15 07:38:41;;;;;;;20.02;9.60;;;;;;;19.32;74.95;101628.44;5087198;28;20062;-78
2022/05/15 07:41:08;;;;;;;20.55;9.63;;;;;;;19.42;74.44;101630.22;5086411;28;20471;-75
2022/05/15 07:43:35;;;;;;;19.15;9.27;;;;;;;19.56;73.45;101635.50;5075798;28;20149;-77
2022/05/15 07:46:02;;;;;;;23.25;9.73;;;;;;;19.70;73.20;101635.16;5069832;28;20095;-78
2022/05/15 07:48:29;;;;;;;18.38;10.23;;;;;;;19.76;71.70;101635.44;5073474;28;20054;-79
2022/05/15 07:50:56;;;;;;;21.63;10.80;;;;;;;19.85;72.17;101627.97;5073158;28;20052;-76
2022/05/15 07:53:22;;;;;;;26.45;10.95;;;;;;;19.91;71.60;101623.41;5071714;28;20171;-76
2022/05/15 07:55:49;;;;;;;29.75;12.40;;;;;;;20.00;70.40;101632.00;5087800;28;20056;-77
2022/05/15 07:58:15;;;;;;;25.02;11.15;;;;;;;20.09;70.40;101634.97;5084019;28;20119;-76
2022/05/15 08:00:42;;;;;;;22.98;9.93;;;;;;;20.24;69.93;101633.41;5069938;28;20170;-77
2022/05/15 08:03:11;;;;;;;21.58;9.88;;;;;;;20.40;68.39;101635.41;5068950;28;20521;-76
2022/05/15 08:08:24;;;;;;;24.88;10.18;;;;;;;20.66;67.26;101630.69;5082077;28;20505;-77
2022/05/15 08:10:51;;;;;;;19.50;9.23;;;;;;;20.76;66.21;101626.78;5085199;28;20063;-77
2022/05/15 08:13:21;;;;;;;22.50;11.73;;;;;;;20.83;65.23;101618.94;5079146;28;20086;-77
2022/05/15 08:15:48;;;;;;;25.73;9.98;;;;;;;20.91;64.37;101614.66;5083424;28;20142;-80
2022/05/15 08:23:54;;;;;;;21.35;9.05;;;;;;;21.24;62.59;101621.75;5089960;28;20083;-76
2022/05/15 08:26:20;;;;;;;23.30;9.35;;;;;;;21.28;62.09;101618.81;5080442;28;20148;-78
2022/05/15 08:28:47;;;;;;;28.88;10.80;;;;;;;21.35;61.54;101613.75;5091070;28;20075;-76
2022/05/15 08:31:17;;;;;;;18.67;7.75;;;;;;;21.49;60.67;101616.13;5088903;28;20138;-78
2022/05/15 08:33:44;;;;;;;21.35;7.90;;;;;;;21.54;59.13;101614.75;5084959;28;20577;-73
2022/05/15 08:36:11;;;;;;;22.33;7.60;;;;;;;21.60;58.04;101619.38;5070876;28;20113;-77
2022/05/15 08:38:38;;;;;;;20.95;7.32;;;;;;;21.73;56.31;101619.41;5063733;28;20053;-76
2022/05/15 08:41:38;;;;;;;21.25;7.38;;;;;;;21.82;52.93;101617.47;5069106;28;20939;-75
2022/05/15 08:44:22;;;;;;;22.42;7.03;;;;;;;21.88;52.77;101609.25;5078671;28;20048;-75
2022/05/15 08:46:49;;;;;;;18.65;6.45;;;;;;;21.94;51.19;101616.66;5079291;28;20501;-77
2022/05/15 08:49:24;;;;;;;22.35;6.75;;;;;;;22.01;50.01;101612.81;5081303;28;20060;-74
2022/05/15 08:52:20;;;;;;;10.80;3.33;;;;;;;22.12;49.12;101596.31;5079104;28;20431;-74
2022/05/15 08:55:01;;;;;;;12.02;5.03;;;;;;;22.25;48.29;101594.25;5080204;28;20055;-73
2022/05/15 08:57:37;;;;;;;18.92;6.40;;;;;;;22.30;49.14;101596.47;5072965;28;20058;-72
2022/05/15 09:00:13;;;;;;;18.63;5.50;;;;;;;22.39;49.70;101591.72;5072214;28;20048;-73
2022/05/15 09:02:42;;;;;;;15.80;6.15;;;;;;;22.53;49.10;101596.88;5080447;28;20047;-72
2022/05/15 09:05:11;;;;;;;18.15;4.80;;;;;;;22.59;47.81;101592.25;5078910;28;20484;-75
2022/05/15 09:07:58;;;;;;;14.65;4.78;;;;;;;22.68;45.63;101597.16;5073430;28;20388;-79
2022/05/15 09:10:42;;;;;;;21.60;6.00;;;;;;;22.79;46.62;101597.53;5082349;28;20044;-77
2022/05/15 09:13:37;;;;;;;14.63;4.82;;;;;;;22.83;46.61;101589.72;5075002;28;20431;-76
2022/05/15 09:16:15;;;;;;;22.38;5.75;;;;;;;22.87;45.79;101584.72;5079903;28;20047;-76
2022/05/15 09:18:41;;;;;;;16.58;5.40;;;;;;;23.00;47.02;101587.47;5081356;28;20059;-76
2022/05/15 09:21:12;;;;;;;20.20;5.55;;;;;;;23.01;45.08;101595.47;5075574;28;20155;-75
2022/05/15 09:23:42;;;;;;;18.75;4.90;;;;;;;23.07;45.58;101587.19;5081676;28;20052;-76
2022/05/15 09:26:29;;;;;;;19.60;6.22;;;;;;;23.12;44.57;101587.41;5080339;28;20584;-76
2022/05/15 09:29:01;;;;;;;18.02;4.38;;;;;;;23.27;45.44;101584.81;5079871;28;20067;-76
2022/05/15 09:31:42;;;;;;;20.13;6.15;;;;;;;23.41;45.37;101589.88;5075684;28;20071;-79
2022/05/15 09:34:25;;;;;;;14.15;3.97;;;;;;;23.58;43.87;101589.19;5067811;28;20052;-76
2022/05/15 09:38:26;;;;;;;15.32;4.25;;;;;;;23.71;44.68;101572.91;5068524;28;20084;-79
2022/05/15 09:39:52;;;;;;;21.77;3.60;;;;;;;23.88;43.08;101579.03;5077040;28;20051;-78
2022/05/15 09:45:13;;;;;;;18.70;3.70;;;;;;;23.99;41.55;101573.78;5067333;28;20056;-76
2022/05/15 09:47:43;;;;;;;18.88;4.45;;;;;;;24.13;42.70;101573.16;5072958;28;20160;-78
2022/05/15 09:50:36;;;;;;;13.93;3.60;;;;;;;24.14;39.86;101563.41;5083041;28;20496;-76
2022/05/15 09:53:18;;;;;;;13.80;3.58;;;;;;;24.27;40.54;101567.63;5076235;28;20055;-79
2022/05/15 09:56:24;;;;;;;14.23;4.15;;;;;;;24.21;39.61;101569.53;5083168;28;20563;-74
2022/05/15 09:58:51;;;;;;;15.55;3.88;;;;;;;24.40;40.90;101568.28;5079682;28;20054;-74
2022/05/15 10:01:34;;;;;;;13.15;3.70;;;;;;;24.50;39.37;101581.16;5076937;28;20123;-74
2022/05/15 10:04:04;;;;;;;13.23;3.78;;;;;;;24.41;37.72;101575.53;5078790;28;20476;-74
2022/05/15 10:06:37;;;;;;;19.50;3.95;;;;;;;24.53;38.97;101577.38;5089284;28;20045;-75
2022/05/15 10:09:32;;;;;;;13.05;4.53;;;;;;;24.66;37.25;101571.56;5086867;28;20047;-76
2022/05/15 10:12:06;;;;;;;9.25;2.65;;;;;;;24.76;37.33;101571.09;5086641;28;20086;-77
2022/05/15 10:14:44;;;;;;;15.63;3.53;;;;;;;24.90;36.29;101564.78;5086102;28;20042;-75
2022/05/15 10:17:13;;;;;;;9.07;2.53;;;;;;;25.03;36.23;101565.38;5085456;28;20734;-76
2022/05/15 10:19:44;;;;;;;14.60;3.60;;;;;;;25.11;36.54;101558.09;5083105;28;20572;-75
2022/05/15 10:22:45;;;;;;;14.90;2.97;;;;;;;25.11;35.17;101558.09;5083824;28;20099;-75
2022/05/15 10:25:28;;;;;;;12.15;2.88;;;;;;;25.23;36.14;101552.69;5081839;28;20102;-73
2022/05/15 10:28:22;;;;;;;16.67;3.63;;;;;;;25.23;35.77;101558.34;5078449;28;20047;-75
2022/05/15 10:30:58;;;;;;;9.55;3.10;;;;;;;25.22;36.04;101553.97;5081812;28;20048;-75
2022/05/15 10:33:25;;;;;;;13.43;3.47;;;;;;;25.29;35.64;101550.78;5083412;28;20040;-75
2022/05/15 10:35:56;;;;;;;15.73;3.33;;;;;;;25.47;35.86;101542.25;5076821;28;20105;-79
2022/05/15 10:38:37;;;;;;;13.13;2.80;;;;;;;25.61;35.09;101547.97;5079467;28;20131;-77
2022/05/15 10:41:12;;;;;;;12.63;3.42;;;;;;;25.65;34.73;101545.75;5081128;28;20135;-79
2022/05/15 10:44:13;;;;;;;10.85;3.05;;;;;;;25.79;34.20;101550.72;5081335;28;20056;-77
2022/05/15 10:46:47;;;;;;;16.77;4.13;;;;;;;25.90;34.04;101542.44;5086098;28;20146;-76
2022/05/15 10:49:44;;;;;;;15.02;3.42;;;;;;;26.06;34.35;101538.41;5083138;28;20052;-76
2022/05/15 10:52:17;;;;;;;13.00;3.38;;;;;;;26.04;34.24;101536.06;5063289;28;20131;-76
2022/05/15 10:57:55;;;;;;;10.57;2.95;;;;;;;26.22;34.53;101530.22;5077058;28;20079;-76
2022/05/15 11:00:26;;;;;;;12.20;3.17;;;;;;;26.45;34.95;101520.88;5072381;28;20055;-76
2022/05/15 11:03:30;;;;;;;10.52;3.58;;;;;;;26.59;33.65;101519.34;5083275;28;20079;-77
2022/05/15 11:06:15;;;;;;;16.35;4.32;;;;;;;26.70;33.13;101511.03;5089912;28;20048;-75
2022/05/15 11:08:52;;;;;;;14.30;3.63;;;;;;;26.79;32.94;101500.34;5079636;28;20079;-76
2022/05/15 11:11:43;;;;;;;13.52;3.13;;;;;;;26.72;32.98;101511.31;5079973;28;20056;-79
2022/05/15 11:14:34;;;;;;;14.55;3.53;;;;;;;26.84;32.93;101498.88;5077617;28;20052;-77
2022/05/15 11:17:19;;;;;;;11.25;2.90;;;;;;;26.93;32.18;101501.63;5076579;28;20090;-77
2022/05/15 11:19:46;;;;;;;12.27;3.25;;;;;;;26.94;32.76;101486.94;5074523;28;20412;-77
2022/05/15 11:22:40;;;;;;;9.85;2.80;;;;;;;27.06;31.72;101493.56;5082654;28;20048;-76
2022/05/15 11:25:17;;;;;;;14.57;3.42;;;;;;;27.23;31.82;101491.78;5079973;28;20091;-75
2022/05/15 11:27:55;;;;;;;11.35;3.38;;;;;;;27.36;30.98;101489.41;5083637;28;20576;-76
2022/05/15 11:30:31;;;;;;;11.30;2.80;;;;;;;27.43;30.59;101489.78;5074170;28;20130;-76
2022/05/15 11:33:03;;;;;;;9.40;2.80;;;;;;;27.71;30.93;101484.47;5076841;28;20067;-76
2022/05/15 11:35:39;;;;;;;9.50;1.95;;;;;;;27.93;28.96;101481.91;5079887;28;20048;-76
2022/05/15 11:38:28;;;;;;;17.73;2.95;;;;;;;28.07;30.32;101478.19;5083356;28;20051;-77
2022/05/15 11:40:56;;;;;;;12.45;3.92;;;;;;;28.33;30.61;101476.16;5081628;28;20060;-76
2022/05/15 11:43:26;;;;;;;9.80;3.20;;;;;;;28.50;30.21;101479.19;5079842;28;20819;-76
2022/05/15 11:45:58;;;;;;;13.15;3.20;;;;;;;28.75;30.43;101481.25;5081053;28;20048;-73
2022/05/15 11:48:33;;;;;;;9.90;3.10;;;;;;;29.11;30.64;101477.66;5076617;28;20130;-70
2022/05/15 11:51:04;;;;;;;9.57;2.58;;;;;;;29.43;29.80;101471.38;5079289;28;20044;-70